createdAt,value
2019-06-27T00:00:17.179Z,1021.07
2019-06-27T00:00:52.339Z,1021.01
2019-06-27T00:01:27.962Z,1021.04
2019-06-27T00:02:03.550Z,1021.07
2019-06-27T00:02:39.015Z,1021.05
2019-06-27T00:03:14.345Z,1021.02
2019-06-27T00:03:49.811Z,1021.05
2019-06-27T00:04:25.144Z,1021.06
2019-06-27T00:05:00.305Z,1021.06
2019-06-27T00:05:35.830Z,1021.04
2019-06-27T00:06:11.189Z,1021.08
2019-06-27T00:06:46.391Z,1021.06
2019-06-27T00:07:21.629Z,1021.10
2019-06-27T00:07:56.891Z,1021.14
2019-06-27T00:08:32.323Z,1021.10
2019-06-27T00:09:07.486Z,1021.12
2019-06-27T00:09:42.815Z,1021.10
2019-06-27T00:10:18.349Z,1021.09
2019-06-27T00:10:53.614Z,1021.07
2019-06-27T00:11:28.837Z,1021.09
2019-06-27T00:12:04.547Z,1021.12
2019-06-27T00:12:39.977Z,1021.12
2019-06-27T00:13:15.537Z,1021.13
2019-06-27T00:13:50.665Z,1021.11
2019-06-27T00:14:26.019Z,1021.11
2019-06-27T00:15:01.269Z,1021.12
2019-06-27T00:15:36.231Z,1021.09
2019-06-27T00:16:11.656Z,1021.12
2019-06-27T00:16:46.954Z,1021.07
2019-06-27T00:17:22.323Z,1021.09
2019-06-27T00:17:57.861Z,1021.07
2019-06-27T00:18:33.225Z,1021.09
2019-06-27T00:19:08.549Z,1021.07
2019-06-27T00:19:43.825Z,1021.10
2019-06-27T00:20:18.948Z,1021.08
2019-06-27T00:20:54.411Z,1021.08
2019-06-27T00:21:29.845Z,1021.09
2019-06-27T00:22:05.481Z,1021.12
2019-06-27T00:22:41.397Z,1021.11
2019-06-27T00:23:16.335Z,1021.14
2019-06-27T00:23:51.966Z,1021.14
2019-06-27T00:24:27.615Z,1021.14
2019-06-27T00:25:03.101Z,1021.16
2019-06-27T00:25:38.324Z,1021.16
2019-06-27T00:26:13.896Z,1021.16
2019-06-27T00:26:56.961Z,1021.13
2019-06-27T00:27:24.624Z,1021.16
2019-06-27T00:28:00.037Z,1021.16
2019-06-27T00:28:35.201Z,1021.08
2019-06-27T00:29:10.461Z,1021.07
2019-06-27T00:29:45.791Z,1021.12
2019-06-27T00:30:21.059Z,1021.08
2019-06-27T00:30:56.499Z,1021.12
2019-06-27T00:31:31.865Z,1021.10
2019-06-27T00:32:07.150Z,1021.11
2019-06-27T00:32:42.422Z,1021.09
2019-06-27T00:33:17.843Z,1021.11
2019-06-27T00:33:53.504Z,1021.10
2019-06-27T00:34:28.780Z,1021.12
2019-06-27T00:35:04.224Z,1021.10
2019-06-27T00:35:39.562Z,1021.06
2019-06-27T00:36:14.699Z,1021.08
2019-06-27T00:36:50.306Z,1021.15
2019-06-27T00:37:25.524Z,1021.11
2019-06-27T00:38:01.091Z,1021.07
2019-06-27T00:38:36.598Z,1021.08
2019-06-27T00:39:11.884Z,1021.11
2019-06-27T00:39:47.141Z,1021.09
2019-06-27T00:40:22.563Z,1021.09
2019-06-27T00:40:57.932Z,1021.11
2019-06-27T00:41:33.353Z,1021.07
2019-06-27T00:42:08.763Z,1021.11
2019-06-27T00:42:44.071Z,1021.07
2019-06-27T00:43:19.628Z,1021.10
2019-06-27T00:43:55.395Z,1021.10
2019-06-27T00:44:30.930Z,1021.11
2019-06-27T00:45:06.387Z,1021.14
2019-06-27T00:45:41.909Z,1021.10
2019-06-27T00:46:17.173Z,1021.11
2019-06-27T00:46:52.740Z,1021.09
2019-06-27T00:47:28.006Z,1021.06
2019-06-27T00:48:03.331Z,1021.10
2019-06-27T00:48:38.707Z,1021.09
2019-06-27T00:49:14.087Z,1021.10
2019-06-27T00:49:49.311Z,1021.11
2019-06-27T00:50:25.020Z,1021.11
2019-06-27T00:51:00.148Z,1021.11
2019-06-27T00:51:35.440Z,1021.09
2019-06-27T00:52:10.773Z,1021.12
2019-06-27T00:52:46.137Z,1021.17
2019-06-27T00:53:21.467Z,1021.16
2019-06-27T00:53:56.749Z,1021.15
2019-06-27T00:54:32.081Z,1021.18
2019-06-27T00:55:07.548Z,1021.19
2019-06-27T00:55:42.886Z,1021.17
2019-06-27T00:56:18.051Z,1021.19
2019-06-27T00:56:53.349Z,1021.13
2019-06-27T00:57:28.677Z,1021.14
2019-06-27T00:58:04.148Z,1021.18
2019-06-27T00:58:39.469Z,1021.13
2019-06-27T00:59:14.848Z,1021.14
2019-06-27T00:59:50.073Z,1021.11
2019-06-27T01:00:25.455Z,1021.11
2019-06-27T01:01:00.795Z,1021.15
2019-06-27T01:01:36.188Z,1021.15
2019-06-27T01:02:11.621Z,1021.12
2019-06-27T01:02:46.996Z,1021.10
2019-06-27T01:03:22.624Z,1021.13
2019-06-27T01:03:57.895Z,1021.13
2019-06-27T01:04:33.320Z,1021.13
2019-06-27T01:05:08.892Z,1021.15
2019-06-27T01:05:44.263Z,1021.12
2019-06-27T01:06:19.497Z,1021.16
2019-06-27T01:06:54.693Z,1021.18
2019-06-27T01:07:30.221Z,1021.14
2019-06-27T01:08:05.495Z,1021.16
2019-06-27T01:08:41.026Z,1021.16
2019-06-27T01:09:16.381Z,1021.17
2019-06-27T01:09:51.822Z,1021.17
2019-06-27T01:10:27.388Z,1021.21
2019-06-27T01:11:02.793Z,1021.19
2019-06-27T01:11:38.123Z,1021.21
2019-06-27T01:12:13.607Z,1021.22
2019-06-27T01:12:49.029Z,1021.19
2019-06-27T01:13:24.391Z,1021.24
2019-06-27T01:13:59.835Z,1021.23
2019-06-27T01:14:35.296Z,1021.20
2019-06-27T01:15:10.639Z,1021.19
2019-06-27T01:15:45.913Z,1021.23
2019-06-27T01:16:21.239Z,1021.24
2019-06-27T01:16:56.339Z,1021.20
2019-06-27T01:17:31.768Z,1021.25
2019-06-27T01:18:07.058Z,1021.21
2019-06-27T01:18:42.494Z,1021.21
2019-06-27T01:19:17.859Z,1021.26
2019-06-27T01:19:53.211Z,1021.25
2019-06-27T01:20:28.574Z,1021.21
2019-06-27T01:21:04.147Z,1021.24
2019-06-27T01:21:39.423Z,1021.26
2019-06-27T01:22:14.884Z,1021.24
2019-06-27T01:22:50.247Z,1021.26
2019-06-27T01:23:25.582Z,1021.27
2019-06-27T01:24:01.115Z,1021.28
2019-06-27T01:24:36.385Z,1021.25
2019-06-27T01:25:11.617Z,1021.26
2019-06-27T01:25:46.987Z,1021.26
2019-06-27T01:26:22.025Z,1021.27
2019-06-27T01:26:57.621Z,1021.24
2019-06-27T01:27:33.309Z,1021.25
2019-06-27T01:28:08.834Z,1021.27
2019-06-27T01:28:44.099Z,1021.27
2019-06-27T01:29:19.531Z,1021.27
2019-06-27T01:29:55.404Z,1021.29
2019-06-27T01:30:30.844Z,1021.24
2019-06-27T01:31:06.115Z,1021.25
2019-06-27T01:31:41.590Z,1021.24
2019-06-27T01:32:16.931Z,1021.23
2019-06-27T01:32:52.268Z,1021.25
2019-06-27T01:33:27.630Z,1021.25
2019-06-27T01:34:02.997Z,1021.23
2019-06-27T01:34:38.240Z,1021.24
2019-06-27T01:35:13.805Z,1021.25
2019-06-27T01:35:48.851Z,1021.20
2019-06-27T01:36:24.126Z,1021.22
2019-06-27T01:36:59.494Z,1021.20
2019-06-27T01:37:34.759Z,1021.16
2019-06-27T01:38:10.104Z,1021.20
2019-06-27T01:38:45.581Z,1021.20
2019-06-27T01:39:20.921Z,1021.23
2019-06-27T01:39:56.385Z,1021.17
2019-06-27T01:40:31.829Z,1021.17
2019-06-27T01:41:06.996Z,1021.19
2019-06-27T01:41:42.279Z,1021.18
2019-06-27T01:42:17.652Z,1021.20
2019-06-27T01:42:53.187Z,1021.15
2019-06-27T01:43:28.560Z,1021.21
2019-06-27T01:44:04.131Z,1021.17
2019-06-27T01:44:39.457Z,1021.19
2019-06-27T01:45:14.830Z,1021.21
2019-06-27T01:45:50.456Z,1021.17
2019-06-27T01:46:25.829Z,1021.22
2019-06-27T01:47:01.098Z,1021.18
2019-06-27T01:47:36.364Z,1021.20
2019-06-27T01:48:11.701Z,1021.19
2019-06-27T01:48:47.260Z,1021.22
2019-06-27T01:49:22.591Z,1021.21
2019-06-27T01:49:58.067Z,1021.22
2019-06-27T01:50:33.423Z,1021.24
2019-06-27T01:51:08.559Z,1021.23
2019-06-27T01:51:43.968Z,1021.23
2019-06-27T01:52:19.203Z,1021.23
2019-06-27T01:52:54.562Z,1021.23
2019-06-27T01:53:30.053Z,1021.27
2019-06-27T01:54:05.264Z,1021.23
2019-06-27T01:54:40.699Z,1021.22
2019-06-27T01:55:15.973Z,1021.24
2019-06-27T01:55:51.341Z,1021.26
2019-06-27T01:56:26.392Z,1021.27
2019-06-27T01:57:01.694Z,1021.25
2019-06-27T01:57:46.644Z,1021.30
2019-06-27T01:58:12.609Z,1021.27
2019-06-27T01:58:47.947Z,1021.30
2019-06-27T01:59:23.214Z,1021.27
2019-06-27T01:59:58.356Z,1021.30
2019-06-27T02:00:33.746Z,1021.30
2019-06-27T02:01:09.095Z,1021.27
2019-06-27T02:01:44.503Z,1021.28
2019-06-27T02:02:19.782Z,1021.29
2019-06-27T02:02:55.225Z,1021.28
2019-06-27T02:03:30.588Z,1021.27
2019-06-27T02:04:05.626Z,1021.28
2019-06-27T02:04:41.301Z,1021.26
2019-06-27T02:05:16.445Z,1021.31
2019-06-27T02:05:52.123Z,1021.27
2019-06-27T02:06:27.249Z,1021.28
2019-06-27T02:07:02.666Z,1021.34
2019-06-27T02:07:37.956Z,1021.31
2019-06-27T02:08:13.372Z,1021.30
2019-06-27T02:08:49.039Z,1021.27
2019-06-27T02:09:24.594Z,1021.29
2019-06-27T02:09:59.855Z,1021.29
2019-06-27T02:10:35.385Z,1021.28
2019-06-27T02:11:10.863Z,1021.26
2019-06-27T02:11:46.282Z,1021.25
2019-06-27T02:12:21.309Z,1021.29
2019-06-27T02:12:56.591Z,1021.25
2019-06-27T02:13:31.834Z,1021.24
2019-06-27T02:14:07.301Z,1021.26
2019-06-27T02:14:42.465Z,1021.26
2019-06-27T02:15:17.906Z,1021.21
2019-06-27T02:15:53.565Z,1021.23
2019-06-27T02:16:28.806Z,1021.22
2019-06-27T02:17:04.214Z,1021.23
2019-06-27T02:17:39.377Z,1021.23
2019-06-27T02:18:14.703Z,1021.26
2019-06-27T02:18:49.975Z,1021.23
2019-06-27T02:19:25.313Z,1021.23
2019-06-27T02:20:00.885Z,1021.24
2019-06-27T02:20:36.236Z,1021.25
2019-06-27T02:21:11.663Z,1021.26
2019-06-27T02:21:46.958Z,1021.27
2019-06-27T02:22:22.395Z,1021.27
2019-06-27T02:22:57.480Z,1021.30
2019-06-27T02:23:32.748Z,1021.26
2019-06-27T02:24:07.978Z,1021.29
2019-06-27T02:24:43.343Z,1021.30
2019-06-27T02:25:18.877Z,1021.31
2019-06-27T02:25:54.245Z,1021.29
2019-06-27T02:26:29.818Z,1021.30
2019-06-27T02:27:05.196Z,1021.33
2019-06-27T02:27:40.662Z,1021.34
2019-06-27T02:28:16.020Z,1021.29
2019-06-27T02:28:51.192Z,1021.29
2019-06-27T02:29:26.776Z,1021.32
2019-06-27T02:30:02.422Z,1021.33
2019-06-27T02:30:37.793Z,1021.32
2019-06-27T02:31:13.112Z,1021.37
2019-06-27T02:31:48.210Z,1021.36
2019-06-27T02:32:23.889Z,1021.36
2019-06-27T02:32:59.526Z,1021.38
2019-06-27T02:33:34.906Z,1021.39
2019-06-27T02:34:10.145Z,1021.39
2019-06-27T02:34:45.829Z,1021.37
2019-06-27T02:35:20.996Z,1021.35
2019-06-27T02:35:56.240Z,1021.37
2019-06-27T02:36:31.410Z,1021.37
2019-06-27T02:37:07.096Z,1021.39
2019-06-27T02:37:42.387Z,1021.37
2019-06-27T02:38:17.647Z,1021.41
2019-06-27T02:38:53.209Z,1021.40
2019-06-27T02:39:28.544Z,1021.40
2019-06-27T02:40:04.107Z,1021.43
2019-06-27T02:40:39.271Z,1021.41
2019-06-27T02:41:14.495Z,1021.36
2019-06-27T02:41:49.962Z,1021.38
2019-06-27T02:42:25.295Z,1021.43
2019-06-27T02:43:00.872Z,1021.40
2019-06-27T02:43:36.220Z,1021.46
2019-06-27T02:44:11.686Z,1021.44
2019-06-27T02:44:47.123Z,1021.43
2019-06-27T02:45:22.496Z,1021.48
2019-06-27T02:45:57.982Z,1021.43
2019-06-27T02:46:33.311Z,1021.44
2019-06-27T02:47:09.047Z,1021.44
2019-06-27T02:47:44.262Z,1021.42
2019-06-27T02:48:19.643Z,1021.47
2019-06-27T02:48:54.673Z,1021.45
2019-06-27T02:49:29.953Z,1021.44
2019-06-27T02:50:05.317Z,1021.49
2019-06-27T02:50:40.739Z,1021.47
2019-06-27T02:51:16.277Z,1021.44
2019-06-27T02:51:51.747Z,1021.45
2019-06-27T02:52:27.418Z,1021.44
2019-06-27T02:53:02.766Z,1021.46
2019-06-27T02:53:38.035Z,1021.46
2019-06-27T02:54:13.399Z,1021.44
2019-06-27T02:54:48.869Z,1021.50
2019-06-27T02:55:24.214Z,1021.50
2019-06-27T02:55:59.587Z,1021.52
2019-06-27T02:56:34.907Z,1021.53
2019-06-27T02:57:10.580Z,1021.53
2019-06-27T02:57:45.918Z,1021.52
2019-06-27T02:58:31.055Z,1021.50
2019-06-27T02:58:56.832Z,1021.49
2019-06-27T02:59:32.571Z,1021.45
2019-06-27T03:00:07.952Z,1021.49
2019-06-27T03:00:43.135Z,1021.47
2019-06-27T03:01:18.368Z,1021.50
2019-06-27T03:01:53.996Z,1021.51
2019-06-27T03:02:29.441Z,1021.46
2019-06-27T03:03:04.716Z,1021.48
2019-06-27T03:03:40.067Z,1021.48
2019-06-27T03:04:15.242Z,1021.48
2019-06-27T03:04:50.678Z,1021.51
2019-06-27T03:05:25.949Z,1021.53
2019-06-27T03:06:01.214Z,1021.53
2019-06-27T03:06:36.598Z,1021.54
2019-06-27T03:07:12.178Z,1021.57
2019-06-27T03:07:47.415Z,1021.55
2019-06-27T03:08:22.719Z,1021.52
2019-06-27T03:08:58.413Z,1021.53
2019-06-27T03:09:33.782Z,1021.53
2019-06-27T03:10:09.335Z,1021.50
2019-06-27T03:10:44.402Z,1021.54
2019-06-27T03:11:19.675Z,1021.54
2019-06-27T03:11:59.554Z,1021.57
2019-06-27T03:12:30.537Z,1021.54
2019-06-27T03:13:06.081Z,1021.58
2019-06-27T03:13:41.268Z,1021.61
2019-06-27T03:14:16.542Z,1021.60
2019-06-27T03:14:51.787Z,1021.60
2019-06-27T03:15:27.258Z,1021.55
2019-06-27T03:16:02.310Z,1021.58
2019-06-27T03:16:37.829Z,1021.57
2019-06-27T03:17:13.064Z,1021.61
2019-06-27T03:17:48.637Z,1021.57
2019-06-27T03:18:23.976Z,1021.55
2019-06-27T03:18:59.453Z,1021.60
2019-06-27T03:19:34.589Z,1021.54
2019-06-27T03:20:09.870Z,1021.57
2019-06-27T03:20:45.452Z,1021.57
2019-06-27T03:21:20.794Z,1021.57
2019-06-27T03:21:56.395Z,1021.53
2019-06-27T03:22:32.027Z,1021.54
2019-06-27T03:23:08.198Z,1021.56
2019-06-27T03:23:43.746Z,1021.57
2019-06-27T03:24:19.215Z,1021.54
2019-06-27T03:24:54.443Z,1021.58
2019-06-27T03:25:30.014Z,1021.58
2019-06-27T03:26:05.206Z,1021.61
2019-06-27T03:26:40.589Z,1021.65
2019-06-27T03:27:16.261Z,1021.58
2019-06-27T03:27:51.601Z,1021.57
2019-06-27T03:28:44.732Z,1021.63
2019-06-27T03:29:02.054Z,1021.57
2019-06-27T03:29:37.381Z,1021.58
2019-06-27T03:30:12.982Z,1021.60
2019-06-27T03:30:48.664Z,1021.60
2019-06-27T03:31:24.185Z,1021.60
2019-06-27T03:31:59.796Z,1021.62
2019-06-27T03:32:35.065Z,1021.61
2019-06-27T03:33:10.603Z,1021.61
2019-06-27T03:33:45.847Z,1021.57
2019-06-27T03:34:21.229Z,1021.57
2019-06-27T03:34:56.962Z,1021.57
2019-06-27T03:35:32.327Z,1021.60
2019-06-27T03:36:07.675Z,1021.59
2019-06-27T03:36:43.195Z,1021.57
2019-06-27T03:37:18.376Z,1021.58
2019-06-27T03:37:54.091Z,1021.58
2019-06-27T03:38:29.170Z,1021.63
2019-06-27T03:39:04.404Z,1021.63
2019-06-27T03:39:40.142Z,1021.64
2019-06-27T03:40:15.469Z,1021.63
2019-06-27T03:40:51.171Z,1021.63
2019-06-27T03:41:26.529Z,1021.61
2019-06-27T03:42:02.047Z,1021.61
2019-06-27T03:42:37.584Z,1021.64
2019-06-27T03:43:12.853Z,1021.67
2019-06-27T03:43:48.197Z,1021.64
2019-06-27T03:44:23.555Z,1021.66
2019-06-27T03:44:59.067Z,1021.60
2019-06-27T03:45:34.109Z,1021.65
2019-06-27T03:46:09.575Z,1021.66
2019-06-27T03:46:45.148Z,1021.62
2019-06-27T03:47:20.429Z,1021.69
2019-06-27T03:47:56.183Z,1021.70
2019-06-27T03:48:31.757Z,1021.73
2019-06-27T03:49:06.898Z,1021.70
2019-06-27T03:49:42.289Z,1021.71
2019-06-27T03:50:17.653Z,1021.69
2019-06-27T03:50:56.065Z,1021.74
2019-06-27T03:51:28.284Z,1021.72
2019-06-27T03:52:03.960Z,1021.72
2019-06-27T03:52:39.430Z,1021.72
2019-06-27T03:53:14.766Z,1021.69
2019-06-27T03:53:50.039Z,1021.72
2019-06-27T03:54:25.528Z,1021.73
2019-06-27T03:55:00.959Z,1021.73
2019-06-27T03:55:36.847Z,1021.76
2019-06-27T03:56:12.472Z,1021.72
2019-06-27T03:56:48.083Z,1021.72
2019-06-27T03:57:23.429Z,1021.73
2019-06-27T03:57:59.003Z,1021.73
2019-06-27T03:58:34.276Z,1021.74
2019-06-27T03:59:12.763Z,1021.74
2019-06-27T03:59:45.099Z,1021.74
2019-06-27T04:00:20.545Z,1021.72
2019-06-27T04:00:56.020Z,1021.74
2019-06-27T04:01:31.398Z,1021.71
2019-06-27T04:02:06.927Z,1021.73
2019-06-27T04:02:42.305Z,1021.75
2019-06-27T04:03:17.837Z,1021.66
2019-06-27T04:03:53.211Z,1021.68
2019-06-27T04:04:28.537Z,1021.68
2019-06-27T04:05:03.915Z,1021.67
2019-06-27T04:05:39.278Z,1021.66
2019-06-27T04:06:14.845Z,1021.66
2019-06-27T04:06:50.467Z,1021.63
2019-06-27T04:07:25.920Z,1021.61
2019-06-27T04:08:01.286Z,1021.66
2019-06-27T04:08:36.955Z,1021.65
2019-06-27T04:09:12.300Z,1021.66
2019-06-27T04:09:48.059Z,1021.63
2019-06-27T04:10:23.627Z,1021.63
2019-06-27T04:10:59.082Z,1021.65
2019-06-27T04:11:34.545Z,1021.66
2019-06-27T04:12:09.848Z,1021.66
2019-06-27T04:12:45.092Z,1021.64
2019-06-27T04:13:20.472Z,1021.66
2019-06-27T04:13:56.422Z,1021.67
2019-06-27T04:14:31.490Z,1021.65
2019-06-27T04:15:07.149Z,1021.66
2019-06-27T04:15:42.393Z,1021.65
2019-06-27T04:16:17.860Z,1021.67
2019-06-27T04:16:53.393Z,1021.70
2019-06-27T04:17:29.003Z,1021.65
2019-06-27T04:18:04.485Z,1021.64
2019-06-27T04:18:39.818Z,1021.68
2019-06-27T04:19:15.396Z,1021.63
2019-06-27T04:19:50.637Z,1021.68
2019-06-27T04:20:26.423Z,1021.68
2019-06-27T04:21:01.775Z,1021.67
2019-06-27T04:21:37.262Z,1021.71
2019-06-27T04:22:17.114Z,1021.68
2019-06-27T04:22:47.807Z,1021.72
2019-06-27T04:23:23.084Z,1021.73
2019-06-27T04:23:58.420Z,1021.77
2019-06-27T04:24:33.802Z,1021.78
2019-06-27T04:25:09.038Z,1021.77
2019-06-27T04:25:44.421Z,1021.77
2019-06-27T04:26:19.762Z,1021.79
2019-06-27T04:26:55.030Z,1021.83
2019-06-27T04:27:30.489Z,1021.79
2019-06-27T04:28:05.831Z,1021.78
2019-06-27T04:28:40.983Z,1021.79
2019-06-27T04:29:32.882Z,1021.85
2019-06-27T04:29:52.035Z,1021.83
2019-06-27T04:30:27.181Z,1021.88
2019-06-27T04:31:02.458Z,1021.88
2019-06-27T04:31:37.681Z,1021.89
2019-06-27T04:32:13.254Z,1021.93
2019-06-27T04:32:49.010Z,1021.86
2019-06-27T04:33:24.421Z,1021.90
2019-06-27T04:33:59.754Z,1021.89
2019-06-27T04:34:35.145Z,1021.93
2019-06-27T04:35:10.723Z,1021.94
2019-06-27T04:35:45.869Z,1021.90
2019-06-27T04:36:21.248Z,1021.91
2019-06-27T04:36:56.898Z,1021.93
2019-06-27T04:37:32.679Z,1021.89
2019-06-27T04:38:07.945Z,1021.93
2019-06-27T04:38:43.267Z,1021.92
2019-06-27T04:39:18.542Z,1021.93
2019-06-27T04:39:54.082Z,1021.96
2019-06-27T04:40:29.464Z,1021.94
2019-06-27T04:41:04.802Z,1021.96
2019-06-27T04:41:39.894Z,1021.94
2019-06-27T04:42:15.353Z,1021.94
2019-06-27T04:42:50.737Z,1021.94
2019-06-27T04:43:26.018Z,1021.92
2019-06-27T04:44:01.201Z,1021.96
2019-06-27T04:44:36.489Z,1021.95
2019-06-27T04:45:12.029Z,1021.95
2019-06-27T04:45:47.522Z,1021.96
2019-06-27T04:46:22.848Z,1021.95
2019-06-27T04:46:58.422Z,1021.94
2019-06-27T04:47:33.956Z,1021.96
2019-06-27T04:48:09.227Z,1021.88
2019-06-27T04:48:44.689Z,1021.97
2019-06-27T04:49:20.502Z,1021.97
2019-06-27T04:49:55.870Z,1021.95
2019-06-27T04:50:31.103Z,1021.97
2019-06-27T04:51:06.380Z,1021.96
2019-06-27T04:51:41.624Z,1021.98
2019-06-27T04:52:17.417Z,1021.96
2019-06-27T04:52:52.893Z,1021.98
2019-06-27T04:53:28.228Z,1021.99
2019-06-27T04:54:03.498Z,1021.96
2019-06-27T04:54:38.987Z,1021.96
2019-06-27T04:55:14.358Z,1021.99
2019-06-27T04:55:49.888Z,1021.98
2019-06-27T04:56:25.173Z,1021.99
2019-06-27T04:57:00.563Z,1021.97
2019-06-27T04:57:36.210Z,1021.99
2019-06-27T04:58:11.683Z,1021.97
2019-06-27T04:58:47.109Z,1021.98
2019-06-27T04:59:23.181Z,1021.97
2019-06-27T04:59:58.638Z,1021.95
2019-06-27T05:00:34.113Z,1021.97
2019-06-27T05:01:09.379Z,1021.92
2019-06-27T05:01:45.394Z,1021.94
2019-06-27T05:02:20.624Z,1021.89
2019-06-27T05:02:56.300Z,1021.93
2019-06-27T05:03:31.949Z,1021.93
2019-06-27T05:04:07.369Z,1021.91
2019-06-27T05:04:42.924Z,1021.92
2019-06-27T05:05:18.710Z,1021.92
2019-06-27T05:05:54.057Z,1021.94
2019-06-27T05:06:29.750Z,1021.98
2019-06-27T05:07:05.130Z,1021.98
2019-06-27T05:07:40.633Z,1021.95
2019-06-27T05:08:16.171Z,1021.99
2019-06-27T05:08:51.886Z,1021.97
2019-06-27T05:09:27.022Z,1021.97
2019-06-27T05:10:02.347Z,1022.01
2019-06-27T05:10:37.793Z,1021.99
2019-06-27T05:11:13.376Z,1022.01
2019-06-27T05:11:49.211Z,1022.01
2019-06-27T05:12:24.803Z,1022.02
2019-06-27T05:13:00.166Z,1022.02
2019-06-27T05:13:35.802Z,1022.04
2019-06-27T05:14:11.149Z,1022.00
2019-06-27T05:14:46.460Z,1022.07
2019-06-27T05:15:21.683Z,1022.06
2019-06-27T05:15:57.292Z,1022.08
2019-06-27T05:16:32.632Z,1022.06
2019-06-27T05:17:08.309Z,1022.06
2019-06-27T05:17:43.474Z,1022.05
2019-06-27T05:18:18.767Z,1022.06
2019-06-27T05:18:54.583Z,1022.09
2019-06-27T05:19:30.088Z,1022.08
2019-06-27T05:20:05.843Z,1022.10
2019-06-27T05:20:41.249Z,1022.09
2019-06-27T05:21:16.489Z,1022.11
2019-06-27T05:21:52.192Z,1022.10
2019-06-27T05:22:28.166Z,1022.13
2019-06-27T05:23:03.563Z,1022.08
2019-06-27T05:23:38.954Z,1022.09
2019-06-27T05:24:14.857Z,1022.09
2019-06-27T05:24:50.054Z,1022.13
2019-06-27T05:25:29.305Z,1022.12
2019-06-27T05:26:01.749Z,1022.15
2019-06-27T05:26:37.136Z,1022.16
2019-06-27T05:27:12.481Z,1022.15
2019-06-27T05:27:47.975Z,1022.16
2019-06-27T05:28:23.242Z,1022.20
2019-06-27T05:28:58.596Z,1022.17
2019-06-27T05:29:34.073Z,1022.17
2019-06-27T05:30:10.606Z,1022.21
2019-06-27T05:30:45.063Z,1022.23
2019-06-27T05:31:20.352Z,1022.19
2019-06-27T05:31:56.014Z,1022.17
2019-06-27T05:32:31.501Z,1022.19
2019-06-27T05:33:07.164Z,1022.23
2019-06-27T05:33:42.898Z,1022.22
2019-06-27T05:34:18.426Z,1022.20
2019-06-27T05:34:54.033Z,1022.21
2019-06-27T05:35:29.685Z,1022.17
2019-06-27T05:36:05.260Z,1022.15
2019-06-27T05:36:40.845Z,1022.24
2019-06-27T05:37:16.326Z,1022.19
2019-06-27T05:37:51.502Z,1022.25
2019-06-27T05:38:26.694Z,1022.16
2019-06-27T05:39:02.068Z,1022.24
2019-06-27T05:39:37.565Z,1022.23
2019-06-27T05:40:12.774Z,1022.21
2019-06-27T05:40:48.306Z,1022.19
2019-06-27T05:41:23.746Z,1022.23
2019-06-27T05:41:59.425Z,1022.21
2019-06-27T05:42:34.869Z,1022.21
2019-06-27T05:43:10.261Z,1022.25
2019-06-27T05:43:45.539Z,1022.24
2019-06-27T05:44:20.824Z,1022.25
2019-06-27T05:44:56.078Z,1022.25
2019-06-27T05:45:31.458Z,1022.26
2019-06-27T05:46:07.112Z,1022.28
2019-06-27T05:46:42.829Z,1022.25
2019-06-27T05:47:18.346Z,1022.24
2019-06-27T05:47:53.657Z,1022.26
2019-06-27T05:48:28.886Z,1022.31
2019-06-27T05:49:04.418Z,1022.28
2019-06-27T05:49:39.965Z,1022.31
2019-06-27T05:50:15.440Z,1022.33
2019-06-27T05:50:50.483Z,1022.37
2019-06-27T05:51:25.788Z,1022.34
2019-06-27T05:52:01.358Z,1022.35
2019-06-27T05:52:37.027Z,1022.35
2019-06-27T05:53:12.271Z,1022.36
2019-06-27T05:53:47.672Z,1022.32
2019-06-27T05:54:22.932Z,1022.34
2019-06-27T05:54:58.217Z,1022.32
2019-06-27T05:55:33.688Z,1022.36
2019-06-27T05:56:08.834Z,1022.28
2019-06-27T05:56:44.266Z,1022.32
2019-06-27T05:57:19.563Z,1022.35
2019-06-27T05:57:55.001Z,1022.40
2019-06-27T05:58:30.509Z,1022.39
2019-06-27T05:59:05.890Z,1022.36
2019-06-27T05:59:41.164Z,1022.37
2019-06-27T06:00:27.597Z,1022.40
2019-06-27T06:00:51.946Z,1022.39
2019-06-27T06:01:27.452Z,1022.34
2019-06-27T06:02:02.936Z,1022.35
2019-06-27T06:02:38.237Z,1022.35
2019-06-27T06:03:13.336Z,1022.37
2019-06-27T06:03:48.797Z,1022.39
2019-06-27T06:04:24.243Z,1022.34
2019-06-27T06:04:59.414Z,1022.36
2019-06-27T06:05:34.993Z,1022.37
2019-06-27T06:06:10.549Z,1022.35
2019-06-27T06:06:45.925Z,1022.35
2019-06-27T06:07:21.269Z,1022.38
2019-06-27T06:07:56.440Z,1022.34
2019-06-27T06:08:31.896Z,1022.36
2019-06-27T06:09:07.407Z,1022.28
2019-06-27T06:09:42.656Z,1022.33
2019-06-27T06:10:17.951Z,1022.32
2019-06-27T06:10:53.088Z,1022.29
2019-06-27T06:11:29.076Z,1022.30
2019-06-27T06:12:04.627Z,1022.32
2019-06-27T06:12:40.414Z,1022.31
2019-06-27T06:13:15.847Z,1022.29
2019-06-27T06:13:51.473Z,1022.31
2019-06-27T06:14:26.697Z,1022.29
2019-06-27T06:15:02.182Z,1022.27
2019-06-27T06:15:37.695Z,1022.27
2019-06-27T06:16:13.014Z,1022.28
2019-06-27T06:16:48.464Z,1022.29
2019-06-27T06:17:24.244Z,1022.29
2019-06-27T06:17:59.691Z,1022.30
2019-06-27T06:18:35.263Z,1022.29
2019-06-27T06:19:10.738Z,1022.33
2019-06-27T06:19:46.325Z,1022.32
2019-06-27T06:20:21.671Z,1022.31
2019-06-27T06:20:57.060Z,1022.29
2019-06-27T06:21:32.298Z,1022.28
2019-06-27T06:22:08.069Z,1022.28
2019-06-27T06:22:43.311Z,1022.28
2019-06-27T06:23:18.997Z,1022.31
2019-06-27T06:23:54.679Z,1022.31
2019-06-27T06:24:30.261Z,1022.33
2019-06-27T06:25:05.416Z,1022.32
2019-06-27T06:25:41.012Z,1022.30
2019-06-27T06:26:16.423Z,1022.34
2019-06-27T06:26:52.038Z,1022.36
2019-06-27T06:27:27.559Z,1022.39
2019-06-27T06:28:02.940Z,1022.34
2019-06-27T06:28:38.317Z,1022.36
2019-06-27T06:29:13.594Z,1022.38
2019-06-27T06:29:49.163Z,1022.39
2019-06-27T06:30:24.618Z,1022.40
2019-06-27T06:31:00.265Z,1022.42
2019-06-27T06:31:35.760Z,1022.42
2019-06-27T06:32:11.197Z,1022.43
2019-06-27T06:32:46.897Z,1022.43
2019-06-27T06:33:22.320Z,1022.47
2019-06-27T06:33:57.843Z,1022.46
2019-06-27T06:34:33.321Z,1022.46
2019-06-27T06:35:08.470Z,1022.48
2019-06-27T06:35:43.859Z,1022.47
2019-06-27T06:36:19.210Z,1022.50
2019-06-27T06:36:54.770Z,1022.48
2019-06-27T06:37:30.032Z,1022.49
2019-06-27T06:38:05.390Z,1022.53
2019-06-27T06:38:40.894Z,1022.53
2019-06-27T06:39:16.445Z,1022.58
2019-06-27T06:39:52.139Z,1022.58
2019-06-27T06:40:27.584Z,1022.53
2019-06-27T06:41:02.799Z,1022.56
2019-06-27T06:41:38.042Z,1022.57
2019-06-27T06:42:13.517Z,1022.57
2019-06-27T06:42:48.963Z,1022.55
2019-06-27T06:43:24.251Z,1022.56
2019-06-27T06:43:59.737Z,1022.54
2019-06-27T06:44:35.144Z,1022.56
2019-06-27T06:45:10.601Z,1022.56
2019-06-27T06:45:46.286Z,1022.59
2019-06-27T06:46:21.741Z,1022.56
2019-06-27T06:46:57.032Z,1022.57
2019-06-27T06:47:32.280Z,1022.57
2019-06-27T06:48:07.680Z,1022.60
2019-06-27T06:48:43.265Z,1022.63
2019-06-27T06:49:18.649Z,1022.62
2019-06-27T06:49:54.198Z,1022.59
2019-06-27T06:50:29.512Z,1022.57
2019-06-27T06:51:04.726Z,1022.61
2019-06-27T06:51:40.734Z,1022.61
2019-06-27T06:52:15.978Z,1022.62
2019-06-27T06:52:51.563Z,1022.62
2019-06-27T06:53:27.012Z,1022.61
2019-06-27T06:54:02.837Z,1022.64
2019-06-27T06:54:38.175Z,1022.60
2019-06-27T06:55:13.976Z,1022.62
2019-06-27T06:55:49.226Z,1022.62
2019-06-27T06:56:24.622Z,1022.64
2019-06-27T06:57:00.093Z,1022.67
2019-06-27T06:57:36.052Z,1022.63
2019-06-27T06:58:11.637Z,1022.58
2019-06-27T06:58:46.777Z,1022.60
2019-06-27T06:59:22.124Z,1022.65
2019-06-27T06:59:57.302Z,1022.64
2019-06-27T07:00:32.753Z,1022.66
2019-06-27T07:01:07.924Z,1022.65
2019-06-27T07:01:45.610Z,1022.65
2019-06-27T07:02:18.799Z,1022.64
2019-06-27T07:02:54.224Z,1022.65
2019-06-27T07:03:29.715Z,1022.64
2019-06-27T07:04:05.294Z,1022.68
2019-06-27T07:04:40.776Z,1022.62
2019-06-27T07:05:16.020Z,1022.68
2019-06-27T07:05:51.531Z,1022.68
2019-06-27T07:06:26.758Z,1022.69
2019-06-27T07:07:02.166Z,1022.70
2019-06-27T07:07:37.636Z,1022.68
2019-06-27T07:08:12.889Z,1022.71